Terminal Aerodrome Forecast
Issued by NWS Sterling, VA

Current Version | Previous Version | Text Only | Print | Product List | Glossary Off
Versions: 1 2 3 4 5 6 7 8 9 10 11 12 13 14 15 16 17 18 19 20 21 22 23 24 25 26 27 28

061
FTUS41 KLWX 140040 AAA
TAFIAD
TAF AMD
KIAD 140040Z 1401/1506 VRB03KT 3SM -DZ OVC008
     FM140600 VRB03KT 3SM -DZ OVC003
     FM141100 VRB03KT 1 1/2SM -DZ OVC003
     FM141500 VRB03KT P6SM OVC035
     FM141800 VRB03KT P6SM BKN100=

USA.gov is the U.S. government's official web portal to all federal, state and local government web resources and services.